createdAt,value
2022-07-30T00:01:37.013Z,2.70
2022-07-30T00:04:03.881Z,2.53
2022-07-30T00:06:30.440Z,2.17
2022-07-30T00:08:56.838Z,2.30
2022-07-30T00:11:27.354Z,2.20
2022-07-30T00:13:54.235Z,2.67
2022-07-30T00:16:20.664Z,2.83
2022-07-30T00:18:47.082Z,2.20
2022-07-30T00:21:31.456Z,2.63
2022-07-30T00:24:02.415Z,2.30
2022-07-30T00:26:29.081Z,2.30
2022-07-30T00:28:56.563Z,2.47
2022-07-30T00:31:22.999Z,2.10
2022-07-30T00:33:49.515Z,2.60
2022-07-30T00:36:15.902Z,2.30
2022-07-30T00:38:42.286Z,2.83
2022-07-30T00:41:08.830Z,2.50
2022-07-30T00:43:35.445Z,2.27
2022-07-30T00:46:01.931Z,2.40
2022-07-30T00:48:28.359Z,2.90
2022-07-30T00:50:54.758Z,2.30
2022-07-30T00:53:21.164Z,2.63
2022-07-30T00:55:47.746Z,2.53
2022-07-30T00:58:14.222Z,2.63
2022-07-30T01:00:40.598Z,2.33
2022-07-30T01:03:07.162Z,2.60
2022-07-30T01:05:33.638Z,2.50
2022-07-30T01:08:00.029Z,2.60
2022-07-30T01:10:26.421Z,2.70
2022-07-30T01:12:54.485Z,2.90
2022-07-30T01:15:21.691Z,2.50
2022-07-30T01:17:52.915Z,2.30
2022-07-30T01:20:29.802Z,2.07
2022-07-30T01:23:13.229Z,2.07
2022-07-30T01:25:51.917Z,2.43
2022-07-30T01:28:20.914Z,2.47
2022-07-30T01:30:49.155Z,2.30
2022-07-30T01:33:17.438Z,2.53
2022-07-30T01:35:46.367Z,2.23
2022-07-30T01:38:13.403Z,2.50
2022-07-30T01:40:42.438Z,2.47
2022-07-30T01:43:09.015Z,2.83
2022-07-30T01:45:42.100Z,2.27
2022-07-30T01:48:11.800Z,2.63
2022-07-30T01:50:38.779Z,2.53
2022-07-30T01:53:05.537Z,2.10
2022-07-30T01:55:36.634Z,3.03
2022-07-30T01:58:06.442Z,3.07
2022-07-30T02:00:34.664Z,2.43
2022-07-30T02:03:01.107Z,2.63
2022-07-30T02:05:28.079Z,2.47
2022-07-30T02:08:06.219Z,2.20
2022-07-30T02:10:40.560Z,2.37
2022-07-30T02:13:07.624Z,2.47
2022-07-30T02:15:35.095Z,2.80
2022-07-30T02:18:16.725Z,2.37
2022-07-30T02:20:45.458Z,2.67
2022-07-30T02:23:16.749Z,2.30
2022-07-30T02:25:44.384Z,2.37
2022-07-30T02:28:12.979Z,2.33
2022-07-30T02:30:43.914Z,2.10
2022-07-30T02:33:12.783Z,2.40
2022-07-30T02:35:40.496Z,2.43
2022-07-30T02:38:07.855Z,2.30
2022-07-30T02:40:34.265Z,2.60
2022-07-30T02:43:01.296Z,2.20
2022-07-30T02:45:29.291Z,2.40
2022-07-30T02:47:57.942Z,2.33
2022-07-30T02:50:24.731Z,2.27
2022-07-30T02:52:52.062Z,2.20
2022-07-30T02:55:18.674Z,2.33
2022-07-30T02:57:46.813Z,2.13
2022-07-30T03:00:13.608Z,2.40
2022-07-30T03:02:40.814Z,2.37
2022-07-30T03:05:10.439Z,2.57
2022-07-30T03:07:37.145Z,2.67
2022-07-30T03:10:03.774Z,1.90
2022-07-30T03:12:31.232Z,2.17
2022-07-30T03:14:58.114Z,2.20
2022-07-30T03:17:25.887Z,2.30
2022-07-30T03:19:53.842Z,1.87
2022-07-30T03:22:21.242Z,2.43
2022-07-30T03:24:48.360Z,2.47
2022-07-30T03:27:16.367Z,2.10
2022-07-30T03:29:44.004Z,2.20
2022-07-30T03:32:12.938Z,2.40
2022-07-30T03:34:41.439Z,2.30
2022-07-30T03:37:08.521Z,2.00
2022-07-30T03:39:35.567Z,2.70
2022-07-30T03:42:02.754Z,2.13
2022-07-30T03:44:30.594Z,2.30
2022-07-30T03:46:57.772Z,2.40
2022-07-30T03:49:24.488Z,2.33
2022-07-30T03:51:52.544Z,2.40
2022-07-30T03:54:19.108Z,2.10
2022-07-30T03:56:46.255Z,2.50
2022-07-30T03:59:15.864Z,2.00
2022-07-30T04:01:42.366Z,2.20
2022-07-30T04:04:09.917Z,2.97
2022-07-30T04:06:39.851Z,2.87
2022-07-30T04:09:10.277Z,2.47
2022-07-30T04:11:41.026Z,2.07
2022-07-30T04:14:08.375Z,2.03
2022-07-30T04:16:42.155Z,2.20
2022-07-30T04:19:12.540Z,2.00
2022-07-30T04:21:40.493Z,4.43
2022-07-30T04:24:08.182Z,2.10
2022-07-30T04:26:36.029Z,2.17
2022-07-30T04:29:04.070Z,2.10
2022-07-30T04:31:40.117Z,2.23
2022-07-30T04:34:08.064Z,1.80
2022-07-30T04:36:35.684Z,2.17
2022-07-30T04:39:02.095Z,1.90
2022-07-30T04:41:28.538Z,2.00
2022-07-30T04:44:14.542Z,2.13
2022-07-30T04:46:40.948Z,1.70
2022-07-30T04:49:07.552Z,2.00
2022-07-30T04:51:34.874Z,1.73
2022-07-30T04:54:02.754Z,1.97
2022-07-30T04:56:30.617Z,2.17
2022-07-30T04:58:57.136Z,2.30
2022-07-30T05:01:40.027Z,2.10
2022-07-30T05:04:08.370Z,2.10
2022-07-30T05:06:35.467Z,2.10
2022-07-30T05:09:01.947Z,2.00
2022-07-30T05:11:28.314Z,2.10
2022-07-30T05:13:54.691Z,2.37
2022-07-30T05:16:21.206Z,2.10
2022-07-30T05:18:47.762Z,4.67
2022-07-30T05:21:14.426Z,2.30
2022-07-30T05:23:40.832Z,2.17
2022-07-30T05:26:19.317Z,2.13
2022-07-30T05:28:48.468Z,2.10
2022-07-30T05:31:17.269Z,1.80
2022-07-30T05:33:44.267Z,2.37
2022-07-30T05:36:10.796Z,2.27
2022-07-30T05:38:37.298Z,2.23
2022-07-30T05:41:03.751Z,2.67
2022-07-30T05:43:30.222Z,2.13
2022-07-30T05:45:56.748Z,1.90
2022-07-30T05:48:23.577Z,2.13
2022-07-30T05:50:50.057Z,2.10
2022-07-30T05:53:16.443Z,1.80
2022-07-30T05:55:42.883Z,2.23
2022-07-30T05:58:09.346Z,1.73
2022-07-30T06:00:35.851Z,1.80
2022-07-30T06:03:02.392Z,2.10
2022-07-30T06:05:28.937Z,2.30
2022-07-30T06:07:55.389Z,2.10
2022-07-30T06:10:21.751Z,1.80
2022-07-30T06:12:48.129Z,1.90
2022-07-30T06:15:14.821Z,2.23
2022-07-30T06:17:42.262Z,2.10
2022-07-30T06:20:09.076Z,2.00
2022-07-30T06:22:35.525Z,2.07
2022-07-30T06:25:02.002Z,1.77
2022-07-30T06:27:31.684Z,1.70
2022-07-30T06:30:07.218Z,2.13
2022-07-30T06:32:33.859Z,2.00
2022-07-30T06:35:04.593Z,1.93
2022-07-30T06:38:05.722Z,1.90
2022-07-30T06:40:18.229Z,2.07
2022-07-30T06:42:44.648Z,1.90
2022-07-30T06:45:11.206Z,1.73
2022-07-30T06:47:37.606Z,3.90
2022-07-30T06:50:04.298Z,2.70
2022-07-30T06:52:30.774Z,2.10
2022-07-30T06:54:57.160Z,2.20
2022-07-30T06:57:23.610Z,2.20
2022-07-30T06:59:57.162Z,1.73
2022-07-30T07:02:23.986Z,2.13
2022-07-30T07:04:50.399Z,2.37
2022-07-30T07:07:31.495Z,2.30
2022-07-30T07:10:03.967Z,2.10
2022-07-30T07:12:30.414Z,1.90
2022-07-30T07:14:56.794Z,2.13
2022-07-30T07:17:23.217Z,2.03
2022-07-30T07:20:01.511Z,2.40
2022-07-30T07:22:28.735Z,1.97
2022-07-30T07:24:55.182Z,2.20
2022-07-30T07:27:21.699Z,2.43
2022-07-30T07:30:01.552Z,2.53
2022-07-30T07:32:31.643Z,2.60
2022-07-30T07:34:58.067Z,3.43
2022-07-30T07:37:24.834Z,2.00
2022-07-30T07:39:51.262Z,2.07
2022-07-30T07:42:17.634Z,2.23
2022-07-30T07:44:44.189Z,2.40
2022-07-30T07:47:10.582Z,2.00
2022-07-30T07:49:36.968Z,2.23
2022-07-30T07:52:03.561Z,2.17
2022-07-30T07:54:29.979Z,2.00
2022-07-30T07:56:56.749Z,1.80
2022-07-30T07:59:23.524Z,2.03
2022-07-30T08:01:54.195Z,2.50
2022-07-30T08:04:20.621Z,2.53
2022-07-30T08:06:46.996Z,1.90
2022-07-30T08:09:13.390Z,2.17
2022-07-30T08:11:39.759Z,2.33
2022-07-30T08:14:06.140Z,2.17
2022-07-30T08:16:32.622Z,2.33
2022-07-30T08:18:59.156Z,2.23
2022-07-30T08:21:25.568Z,1.83
2022-07-30T08:23:51.958Z,2.27
2022-07-30T08:26:18.403Z,2.35
2022-07-30T08:28:45.788Z,2.05
2022-07-30T08:31:12.349Z,2.40
2022-07-30T08:33:38.908Z,1.90
2022-07-30T08:36:09.418Z,1.80
2022-07-30T08:38:36.339Z,2.30
2022-07-30T08:41:02.759Z,1.80
2022-07-30T08:43:29.474Z,2.17
2022-07-30T08:45:56.504Z,1.80
2022-07-30T08:48:23.586Z,2.20
2022-07-30T08:50:50.310Z,2.10
2022-07-30T08:53:17.523Z,1.70
2022-07-30T08:55:44.528Z,2.28
2022-07-30T08:58:21.083Z,1.90
2022-07-30T09:00:47.557Z,4.10
2022-07-30T09:03:14.088Z,2.40
2022-07-30T09:05:40.555Z,11.60
2022-07-30T09:08:08.929Z,3.13
2022-07-30T09:10:35.526Z,2.60
2022-07-30T09:13:01.898Z,1.88
2022-07-30T09:15:28.514Z,2.10
2022-07-30T09:17:58.895Z,2.50
2022-07-30T09:20:27.196Z,2.60
2022-07-30T09:22:54.811Z,2.22
2022-07-30T09:25:33.254Z,2.28
2022-07-30T09:27:59.647Z,2.55
2022-07-30T09:30:30.548Z,2.40
2022-07-30T09:32:58.687Z,2.50
2022-07-30T09:35:25.073Z,2.28
2022-07-30T09:38:04.545Z,2.50
2022-07-30T09:40:32.920Z,2.38
2022-07-30T09:43:17.406Z,2.22
2022-07-30T09:45:57.073Z,2.00
2022-07-30T09:48:26.189Z,2.38
2022-07-30T09:50:53.174Z,10.98
2022-07-30T09:53:22.398Z,13.68
2022-07-30T09:55:48.958Z,2.10
2022-07-30T09:58:19.973Z,2.33
2022-07-30T10:00:56.578Z,2.17
2022-07-30T10:03:33.922Z,2.03
2022-07-30T10:06:01.592Z,2.28
2022-07-30T10:08:46.098Z,2.70
2022-07-30T10:11:14.475Z,2.08
2022-07-30T10:13:45.400Z,2.10
2022-07-30T10:16:12.254Z,2.42
2022-07-30T10:18:38.679Z,2.15
2022-07-30T10:21:05.803Z,2.50
2022-07-30T10:23:32.973Z,2.53
2022-07-30T10:26:00.399Z,2.10
2022-07-30T10:28:31.427Z,2.00
2022-07-30T10:31:08.319Z,2.13
2022-07-30T10:33:50.511Z,1.77
2022-07-30T10:36:17.753Z,1.83
2022-07-30T10:38:45.976Z,1.98
2022-07-30T10:41:42.216Z,1.90
2022-07-30T10:44:15.735Z,1.92
2022-07-30T10:46:51.690Z,1.83
2022-07-30T10:49:18.601Z,2.08
2022-07-30T10:51:50.316Z,2.08
2022-07-30T10:54:39.167Z,1.83
2022-07-30T10:57:06.365Z,1.90
2022-07-30T11:00:04.712Z,2.08
2022-07-30T11:02:34.948Z,2.50
2022-07-30T11:05:31.900Z,2.30
2022-07-30T11:08:27.407Z,2.20
2022-07-30T11:10:59.063Z,2.00
2022-07-30T11:13:58.773Z,3.42
2022-07-30T11:16:46.006Z,2.30
2022-07-30T11:19:55.235Z,1.98
2022-07-30T11:22:27.412Z,2.97
2022-07-30T11:24:54.078Z,1.90
2022-07-30T11:27:41.379Z,2.10
2022-07-30T11:30:17.837Z,1.88
2022-07-30T11:32:56.332Z,2.25
2022-07-30T11:35:23.612Z,2.45
2022-07-30T11:38:05.225Z,2.25
2022-07-30T11:40:56.655Z,2.10
2022-07-30T11:43:36.190Z,2.30
2022-07-30T11:46:07.708Z,5.18
2022-07-30T11:48:41.038Z,2.40
2022-07-30T11:51:08.687Z,2.50
2022-07-30T11:53:35.479Z,3.47
2022-07-30T11:56:02.270Z,2.50
2022-07-30T11:58:28.767Z,2.25
2022-07-30T12:01:01.743Z,3.63
2022-07-30T12:03:31.833Z,3.05
2022-07-30T12:06:09.510Z,2.05
2022-07-30T12:08:45.978Z,2.20
2022-07-30T12:11:12.698Z,2.13
2022-07-30T12:13:45.228Z,2.00
2022-07-30T12:16:18.774Z,2.03
2022-07-30T12:18:45.851Z,1.90
2022-07-30T12:21:12.858Z,2.70
2022-07-30T12:23:39.474Z,2.97
2022-07-30T12:26:05.862Z,1.98
2022-07-30T12:28:33.826Z,2.35
2022-07-30T12:31:02.552Z,1.92
2022-07-30T12:33:28.952Z,1.80
2022-07-30T12:35:56.437Z,2.30
2022-07-30T12:38:23.554Z,2.20
2022-07-30T12:40:56.198Z,2.00
2022-07-30T12:43:41.557Z,1.75
2022-07-30T12:46:10.770Z,2.25
2022-07-30T12:48:51.129Z,1.95
2022-07-30T12:51:18.233Z,2.30
2022-07-30T12:53:45.370Z,2.40
2022-07-30T12:56:16.209Z,1.80
2022-07-30T12:58:43.253Z,2.05
2022-07-30T13:01:12.394Z,1.90
2022-07-30T13:03:39.503Z,2.67
2022-07-30T13:06:11.766Z,2.05
2022-07-30T13:08:47.563Z,2.20
2022-07-30T13:11:14.084Z,2.60
2022-07-30T13:13:40.654Z,2.13
2022-07-30T13:16:07.110Z,2.20
2022-07-30T13:18:34.551Z,1.73
2022-07-30T13:21:01.665Z,2.00
2022-07-30T13:23:29.871Z,3.17
2022-07-30T13:25:56.861Z,2.28
2022-07-30T13:28:23.282Z,2.17
2022-07-30T13:30:49.702Z,2.50
2022-07-30T13:33:16.071Z,2.53
2022-07-30T13:35:42.433Z,2.22
2022-07-30T13:38:09.488Z,2.00
2022-07-30T13:40:36.934Z,2.20
2022-07-30T13:43:03.443Z,2.13
2022-07-30T13:45:30.274Z,2.28
2022-07-30T13:47:57.022Z,2.10
2022-07-30T13:50:23.558Z,2.25
2022-07-30T13:52:49.932Z,2.42
2022-07-30T13:55:16.414Z,2.00
2022-07-30T13:57:45.167Z,2.10
2022-07-30T14:00:12.673Z,2.20
2022-07-30T14:02:39.083Z,1.92
2022-07-30T14:05:08.781Z,2.30
2022-07-30T14:07:37.344Z,2.22
2022-07-30T14:10:04.566Z,1.75
2022-07-30T14:12:31.013Z,1.70
2022-07-30T14:14:57.832Z,4.53
2022-07-30T14:17:24.351Z,1.90
2022-07-30T14:19:54.342Z,1.75
2022-07-30T14:22:21.343Z,1.73
2022-07-30T14:24:47.772Z,1.90
2022-07-30T14:27:14.300Z,2.10
2022-07-30T14:29:40.775Z,1.98
2022-07-30T14:32:07.218Z,2.20
2022-07-30T14:34:33.638Z,1.95
2022-07-30T14:37:00.365Z,2.47
2022-07-30T14:39:27.139Z,2.05
2022-07-30T14:41:55.817Z,2.45
2022-07-30T14:44:22.806Z,2.30
2022-07-30T14:46:52.003Z,2.22
2022-07-30T14:49:19.841Z,2.05
2022-07-30T14:51:46.705Z,2.10
2022-07-30T14:54:13.280Z,2.33
2022-07-30T14:56:39.907Z,1.85
2022-07-30T14:59:06.322Z,1.80
2022-07-30T15:01:32.792Z,2.15
2022-07-30T15:03:59.528Z,1.80
2022-07-30T15:06:26.282Z,2.10
2022-07-30T15:08:53.074Z,1.90
2022-07-30T15:11:21.844Z,1.98
2022-07-30T15:13:50.448Z,1.98
2022-07-30T15:16:17.385Z,2.75
2022-07-30T15:18:43.758Z,2.05
2022-07-30T15:21:10.478Z,2.17
2022-07-30T15:23:36.864Z,2.15
2022-07-30T15:26:08.969Z,2.03
2022-07-30T15:28:35.342Z,2.25
2022-07-30T15:31:01.882Z,2.28
2022-07-30T15:33:28.312Z,2.30
2022-07-30T15:35:54.833Z,2.42
2022-07-30T15:38:22.592Z,2.28
2022-07-30T15:40:48.999Z,1.83
2022-07-30T15:43:15.373Z,2.22
2022-07-30T15:45:55.400Z,1.92
2022-07-30T15:48:24.951Z,1.70
2022-07-30T15:50:59.647Z,2.20
2022-07-30T15:53:26.113Z,1.90
2022-07-30T15:55:52.536Z,2.00
2022-07-30T15:58:18.919Z,2.28
2022-07-30T16:00:45.317Z,2.20
2022-07-30T16:03:11.688Z,1.67
2022-07-30T16:05:51.650Z,2.28
2022-07-30T16:08:19.066Z,2.47
2022-07-30T16:10:45.482Z,2.80
2022-07-30T16:13:11.893Z,1.70
2022-07-30T16:15:38.292Z,1.60
2022-07-30T16:18:04.894Z,1.67
2022-07-30T16:20:31.653Z,1.83
2022-07-30T16:22:58.158Z,1.90
2022-07-30T16:25:24.567Z,2.33
2022-07-30T16:27:50.987Z,2.13
2022-07-30T16:30:17.798Z,1.83
2022-07-30T16:32:44.193Z,1.80
2022-07-30T16:35:13.352Z,1.52
2022-07-30T16:37:40.021Z,1.83
2022-07-30T16:40:06.625Z,2.28
2022-07-30T16:42:33.019Z,2.00
2022-07-30T16:44:59.484Z,1.77
2022-07-30T16:47:25.930Z,2.00
2022-07-30T16:49:52.507Z,1.92
2022-07-30T16:52:18.955Z,2.45
2022-07-30T16:54:45.347Z,2.17
2022-07-30T16:57:11.794Z,2.10
2022-07-30T16:59:38.311Z,2.10
2022-07-30T17:02:05.226Z,2.03
2022-07-30T17:04:32.422Z,2.22
2022-07-30T17:06:58.803Z,1.92
2022-07-30T17:09:25.279Z,2.30
2022-07-30T17:11:52.440Z,2.08
2022-07-30T17:14:19.166Z,2.25
2022-07-30T17:16:45.590Z,2.15
2022-07-30T17:19:12.221Z,2.22
2022-07-30T17:21:38.621Z,2.63
2022-07-30T17:24:11.024Z,2.13
2022-07-30T17:26:40.435Z,2.10
2022-07-30T17:29:10.758Z,2.05
2022-07-30T17:31:42.216Z,2.20
2022-07-30T17:34:09.149Z,2.03
2022-07-30T17:36:36.120Z,3.25
2022-07-30T17:39:02.658Z,2.65
2022-07-30T17:41:29.123Z,2.45
2022-07-30T17:43:56.626Z,2.30
2022-07-30T17:46:23.253Z,2.80
2022-07-30T17:48:50.179Z,2.25
2022-07-30T17:51:16.911Z,2.47
2022-07-30T17:53:43.425Z,2.30
2022-07-30T17:56:26.831Z,2.30
2022-07-30T17:58:53.668Z,3.03
2022-07-30T18:01:20.147Z,10.93
2022-07-30T18:03:46.588Z,3.50
2022-07-30T18:06:12.986Z,5.40
2022-07-30T18:08:39.370Z,3.78
2022-07-30T18:11:09.537Z,3.67
2022-07-30T18:13:38.364Z,3.22
2022-07-30T18:16:04.977Z,3.60
2022-07-30T18:18:31.415Z,3.20
2022-07-30T18:20:57.804Z,9.85
2022-07-30T18:23:24.276Z,2.80
2022-07-30T18:26:00.533Z,7.85
2022-07-30T18:28:27.083Z,21.73
2022-07-30T18:30:55.026Z,4.30
2022-07-30T18:33:21.450Z,4.82
2022-07-30T18:35:48.051Z,5.43
2022-07-30T18:38:15.072Z,9.73
2022-07-30T18:40:41.526Z,10.75
2022-07-30T18:43:07.925Z,9.27
2022-07-30T18:45:37.090Z,15.65
2022-07-30T18:48:04.013Z,3.40
2022-07-30T18:50:30.729Z,3.65
2022-07-30T18:52:57.155Z,3.97
2022-07-30T18:55:23.598Z,3.10
2022-07-30T18:57:52.186Z,3.95
2022-07-30T19:00:34.035Z,3.28
2022-07-30T19:03:01.708Z,3.60
2022-07-30T19:05:28.182Z,3.35
2022-07-30T19:07:58.131Z,3.50
2022-07-30T19:10:26.174Z,3.72
2022-07-30T19:12:52.914Z,3.90
2022-07-30T19:15:19.372Z,3.88
2022-07-30T19:17:47.038Z,5.43
2022-07-30T19:20:13.656Z,4.85
2022-07-30T19:22:41.586Z,6.00
2022-07-30T19:25:08.389Z,4.03
2022-07-30T19:27:34.804Z,3.08
2022-07-30T19:30:01.250Z,2.88
2022-07-30T19:32:30.097Z,3.30
2022-07-30T19:34:56.687Z,2.80
2022-07-30T19:37:24.137Z,3.22
2022-07-30T19:39:58.565Z,3.47
2022-07-30T19:42:32.508Z,3.15
2022-07-30T19:45:01.387Z,2.60
2022-07-30T19:47:38.383Z,2.60
2022-07-30T19:50:06.214Z,2.35
2022-07-30T19:52:32.909Z,2.70
2022-07-30T19:55:01.229Z,3.07
2022-07-30T19:57:53.328Z,2.40
2022-07-30T20:00:15.791Z,2.63
2022-07-30T20:02:51.705Z,2.97
2022-07-30T20:05:18.259Z,2.87
2022-07-30T20:07:45.417Z,2.90
2022-07-30T20:10:13.145Z,2.40
2022-07-30T20:12:49.679Z,2.80
2022-07-30T20:15:17.033Z,2.90
2022-07-30T20:17:43.428Z,3.93
2022-07-30T20:20:12.827Z,3.10
2022-07-30T20:22:39.294Z,3.80
2022-07-30T20:25:07.004Z,2.90
2022-07-30T20:27:35.942Z,3.73
2022-07-30T20:30:04.111Z,8.00
2022-07-30T20:32:30.530Z,4.63
2022-07-30T20:34:57.272Z,4.00
2022-07-30T20:37:24.719Z,3.57
2022-07-30T20:39:54.944Z,3.23
2022-07-30T20:42:23.959Z,3.90
2022-07-30T20:44:51.380Z,3.57
2022-07-30T20:47:34.775Z,3.40
2022-07-30T20:50:09.404Z,3.97
2022-07-30T20:52:36.500Z,3.70
2022-07-30T20:55:03.094Z,3.37
2022-07-30T20:57:56.717Z,3.87
2022-07-30T21:00:18.727Z,3.60
2022-07-30T21:02:46.680Z,4.37
2022-07-30T21:05:19.840Z,4.23
2022-07-30T21:07:46.913Z,4.10
2022-07-30T21:10:13.381Z,4.77
2022-07-30T21:12:44.647Z,4.97
2022-07-30T21:15:23.745Z,4.90
2022-07-30T21:17:50.921Z,5.57
2022-07-30T21:20:17.379Z,7.00
2022-07-30T21:22:54.669Z,7.13
2022-07-30T21:25:21.347Z,7.60
2022-07-30T21:27:49.972Z,8.97
2022-07-30T21:30:16.798Z,9.30
2022-07-30T21:32:43.511Z,10.27
2022-07-30T21:35:11.655Z,11.40
2022-07-30T21:37:38.268Z,11.03
2022-07-30T21:40:09.657Z,11.30
2022-07-30T21:42:36.163Z,12.43
2022-07-30T21:45:14.791Z,12.03
2022-07-30T21:47:47.517Z,13.00
2022-07-30T21:50:14.496Z,13.03
2022-07-30T21:52:42.733Z,14.50
2022-07-30T21:55:09.867Z,15.40
2022-07-30T21:57:39.988Z,15.13
2022-07-30T22:00:09.767Z,16.97
2022-07-30T22:02:37.192Z,14.73
2022-07-30T22:05:03.641Z,16.60
2022-07-30T22:07:30.563Z,15.57
2022-07-30T22:09:57.283Z,14.40
2022-07-30T22:12:25.837Z,16.43
2022-07-30T22:14:55.491Z,13.63
2022-07-30T22:17:23.497Z,13.80
2022-07-30T22:20:04.086Z,13.67
2022-07-30T22:22:36.299Z,14.40
2022-07-30T22:25:06.918Z,13.07
2022-07-30T22:27:39.969Z,13.27
2022-07-30T22:30:23.814Z,12.90
2022-07-30T22:32:54.268Z,14.03
2022-07-30T22:35:20.977Z,11.90
2022-07-30T22:38:00.350Z,11.30
2022-07-30T22:40:26.770Z,12.73
2022-07-30T22:42:53.173Z,10.70
2022-07-30T22:45:42.340Z,11.23
2022-07-30T22:48:10.891Z,11.43
2022-07-30T22:50:39.986Z,11.73
2022-07-30T22:53:23.578Z,12.63
2022-07-30T22:55:54.732Z,14.13
2022-07-30T22:58:22.051Z,14.47
2022-07-30T23:00:52.854Z,14.17
2022-07-30T23:03:19.476Z,14.27
2022-07-30T23:05:56.469Z,14.07
2022-07-30T23:08:30.263Z,14.33
2022-07-30T23:10:57.248Z,14.97
2022-07-30T23:13:23.630Z,14.90
2022-07-30T23:15:50.098Z,13.00
2022-07-30T23:18:16.483Z,14.37
2022-07-30T23:20:42.902Z,14.27
2022-07-30T23:23:10.811Z,14.43
2022-07-30T23:25:39.002Z,13.13
2022-07-30T23:28:05.862Z,11.90
2022-07-30T23:30:34.130Z,13.13
2022-07-30T23:33:00.894Z,12.70
2022-07-30T23:35:27.298Z,11.53
2022-07-30T23:37:53.668Z,11.37
2022-07-30T23:40:20.103Z,11.70
2022-07-30T23:42:47.023Z,11.17
2022-07-30T23:45:13.947Z,10.70
2022-07-30T23:47:58.010Z,9.97
2022-07-30T23:50:26.751Z,10.57
2022-07-30T23:52:53.146Z,9.73
2022-07-30T23:55:19.582Z,10.60
2022-07-30T23:57:46.004Z,10.67
